This is the latest recevied weather packets stored in our database for station/object W1CAT. If no packets are shown the sender has not sent any weather packets the latest 1 day(s).
| Time | Temp. | Humidity | Pressure | Rain* | Wind** | Luminosity | Snow |
|---|---|---|---|---|---|---|---|
| 1778022262 | 10.56° C | 50% | - | 0 mm | 2.24 m/s, 182° | - | - |
| 1778021948 | 10.56° C | 51% | - | 0 mm | 0.89 m/s, 102° | - | - |
| 1778021646 | 11.11° C | 49% | - | 0 mm | 1.79 m/s, 107° | - | - |
| 1778021346 | 11.67° C | 47% | - | 0 mm | 0.89 m/s, 177° | - | - |
| 1778021044 | 11.11° C | 49% | - | 0 mm | 2.24 m/s, 166° | - | - |
| 1778020740 | 12.78° C | 47% | - | 0 mm | 2.24 m/s, 178° | - | - |
| 1778020437 | 13.89° C | 43% | - | 0 mm | 1.34 m/s, 168° | - | - |
| 1778020133 | 15° C | 41% | - | 0 mm | 1.79 m/s, 169° | - | - |
| 1778019830 | 15° C | 42% | - | 0 mm | 1.34 m/s, 158° | - | - |
| 1778019526 | 15° C | 42% | - | 0 mm | 1.34 m/s, 139° | - | - |
| 1778019223 | 15.56° C | 40% | - | 0 mm | 0.89 m/s, 76° | - | - |
| 1778018920 | 15.56° C | 40% | - | 0 mm | 1.34 m/s, 163° | - | - |
| 1778018617 | 16.67° C | 39% | - | 0 mm | 0.89 m/s, 109° | - | - |
| 1778018315 | 15° C | 42% | - | 0 mm | 0.89 m/s, 122° | - | - |
| 1778018013 | 14.44° C | 43% | - | 0 mm | 1.34 m/s, 170° | - | - |
| 1778017711 | 15° C | 42% | - | 0 mm | 1.34 m/s, 81° | - | - |
| 1778017408 | 15.56° C | 41% | - | 0 mm | 2.68 m/s, 264° | - | - |
| 1778017105 | 15° C | 41% | - | 0 mm | 1.79 m/s, 193° | - | - |
| 1778016803 | 15° C | 41% | - | 0 mm | 1.34 m/s, 115° | - | - |
| 1778016498 | 15° C | 42% | - | 0 mm | 0.89 m/s, 282° | - | - |
| 1778016196 | 15° C | 42% | - | 0 mm | 1.34 m/s, 151° | - | - |
| 1778015892 | 13.33° C | 45% | - | 0 mm | 0.89 m/s, 100° | - | - |
| 1778015590 | 15° C | 43% | - | 0 mm | 1.34 m/s, 135° | - | - |
| 1778015286 | 14.44° C | 43% | - | 0 mm | 1.79 m/s, 126° | - | - |
| 1778014983 | 13.89° C | 44% | - | 0 mm | 2.24 m/s, 152° | - | - |
* Rain latest hour (hover to see other rain measurements)
** Current wind speed in m/s (hover to see current wind gust speed)